Terminal Aerodrome Forecast
Issued by NWS

Home | Current Version | Previous Version | Text Only | Print | Product List | Glossary Off
Versions: 1 2 3 4 5 6 7 8 9 10 11 12 13 14 15 16 17 18

000
FTUS42 KMHX 212336
TAFISO
TAF
KISO 212336Z 2200/2224 14005KT 5SM -SHRA OVC007
     FM220100 15006KT 5SM -SHRA VCTS OVC007CB
     FM220500 19009KT 3SM BR OVC005
     FM220900 21009KT 1/2SM FG OVC002
     FM221300 23005KT 3SM SHRA VCTS OVC002CB
     FM222000 16009KT 6SM SHRA VCTS OVC020CB
      AMD LTD TO CLD VIS AND WIND=

USA.gov is the U.S. government's official web portal to all federal, state and local government web resources and services.